Disclaimer

Please do not use the information listed here in-flight or in-navigation, as they are not provided to us by the airports but are provided by volunteers, so they might be outdated.

Search


Regions


Airport information page

Radio informations:
HANGZHOU TWR - 118.3 MHz
HANGZHOU GND - 121.75 MHz

Airport informations:
Latitude: 30° 13' 46.21" N
Longitude: 120° 26' 04.03" E
Elevation: 23 feet - 7 meters
Operating hours: N/A
Operating agency: Civil government, landing fees and diplomatic clearance may be required
Timezone: UTC+8
Fuel: Jet fuel avaiable but type is unknown.

Runway information:
07/25 - 11811 x 148 feet< - >3600 x 45 meters

Recent METARs:
ZSHC 180600Z 01003MPS 340V050 4000 -RA BR FEW003 BKN006 BKN020 12/12 Q1020 NOSIG
ZSHC 180630Z 02003MPS 7000 -RA FEW003 BKN006 BKN020 12/11 Q1019 NOSIG
ZSHC 180730Z 34003MPS 310V030 8000 -RA SCT007 BKN020 12/11 Q1020 NOSIG

Airport on the map: